Time;durP1;ratioP1;P1;durP2;ratioP2;P2;SDS_P1;SDS_P2;PMS_P1;PMS_P2;Temp;Humidity;BMP_temperature;BMP_pressure;BME280_temperature;BME280_humidity;BME280_pressure;Samples;Min_cycle;Max_cycle;Signal;HPM_P1;HPM_P2
2021/10/22 00:28:57;;;;;;;;;;;7.10;99.90;;;;;;5031437;28;19921;-78
2021/10/22 00:31:23;;;;;;;;;;;7.10;99.90;;;;;;5023414;28;19976;-78
2021/10/22 00:33:49;;;;;;;;;;;7.10;99.90;;;;;;5049204;28;20312;-79
2021/10/22 00:36:15;;;;;;;;;;;7.10;99.90;;;;;;5030995;28;20000;-78
2021/10/22 00:38:40;;;;;;;;;;;7.00;99.90;;;;;;5033177;28;20024;-79
2021/10/22 00:41:06;;;;;;;;;;;7.00;99.90;;;;;;5034149;28;19913;-77
2021/10/22 00:43:33;;;;;;;;;;;7.00;99.90;;;;;;5029683;28;20219;-78
2021/10/22 00:45:59;;;;;;;;;;;7.00;99.90;;;;;;5038525;28;19909;-77
2021/10/22 00:48:24;;;;;;;;;;;7.00;99.90;;;;;;5025920;28;19917;-78
2021/10/22 00:50:55;;;;;;;;;;;7.00;99.90;;;;;;5049068;28;19913;-78
2021/10/22 00:53:21;;;;;;;;;;;7.00;99.90;;;;;;5033995;28;19948;-78
2021/10/22 00:55:47;;;;;;;;;;;7.00;99.90;;;;;;5036925;28;19963;-77
2021/10/22 00:58:12;;;;;;;;;;;7.00;99.90;;;;;;5035924;28;19940;-79
2021/10/22 01:00:38;;;;;;;;;;;7.00;99.90;;;;;;5036970;28;19941;-77
2021/10/22 01:03:05;;;;;;;;;;;7.00;99.90;;;;;;5036318;28;19929;-77
2021/10/22 01:05:31;;;;;;;;;;;7.00;99.90;;;;;;5030377;28;19964;-78
2021/10/22 01:07:57;;;;;;;;;;;7.00;99.90;;;;;;5028677;28;19917;-78
2021/10/22 01:10:22;;;;;;;;;;;7.00;99.90;;;;;;5036030;28;19909;-79
2021/10/22 01:12:48;;;;;;;;;;;7.00;99.90;;;;;;5036034;28;19913;-78
2021/10/22 01:15:14;;;;;;;;;;;7.00;99.90;;;;;;5035622;28;19920;-79
2021/10/22 01:17:41;;;;;;;;;;;7.10;99.90;;;;;;5036405;28;19920;-78
2021/10/22 01:20:08;;;;;;;;;;;7.10;99.90;;;;;;5037338;28;20369;-78
2021/10/22 01:22:34;;;;;;;;;;;7.10;99.90;;;;;;5024719;28;19913;-78
2021/10/22 01:25:03;;;;;;;;;;;7.10;99.90;;;;;;5035842;28;20369;-79
2021/10/22 01:27:29;;;;;;;;;;;7.10;99.90;;;;;;5035669;28;19921;-78
2021/10/22 01:29:54;;;;;;;;;;;7.10;99.90;;;;;;5052302;28;19917;-79
2021/10/22 01:32:20;;;;;;;;;;;7.00;99.90;;;;;;5030875;28;19921;-78
2021/10/22 01:34:45;;;;;;;;;;;7.00;99.90;;;;;;5030033;28;20224;-79
2021/10/22 01:37:11;;;;;;;;;;;7.00;99.90;;;;;;5025586;28;20004;-78
2021/10/22 01:39:37;;;;;;;;;;;7.00;99.90;;;;;;5032183;28;19917;-79
2021/10/22 01:42:03;;;;;;;;;;;7.00;99.90;;;;;;5032606;28;19917;-78
2021/10/22 01:44:28;;;;;;;;;;;7.00;99.90;;;;;;5025600;28;20312;-79
2021/10/22 01:46:55;;;;;;;;;;;7.00;99.90;;;;;;5034741;28;19925;-79
2021/10/22 01:49:20;;;;;;;;;;;7.00;99.90;;;;;;5028002;28;19921;-79
2021/10/22 01:51:46;;;;;;;;;;;7.00;99.90;;;;;;5035525;28;19913;-78
2021/10/22 01:54:12;;;;;;;;;;;7.00;99.90;;;;;;5035239;28;20317;-79
2021/10/22 01:56:37;;;;;;;;;;;7.00;99.90;;;;;;5035408;28;19916;-79
2021/10/22 01:59:03;;;;;;;;;;;7.00;99.90;;;;;;5036405;28;19917;-79
2021/10/22 02:01:30;;;;;;;;;;;6.90;99.90;;;;;;5031144;28;19972;-79
2021/10/22 02:03:55;;;;;;;;;;;6.90;99.90;;;;;;5035432;28;20403;-78
2021/10/22 02:06:22;;;;;;;;;;;6.80;99.90;;;;;;5032098;28;20000;-78
2021/10/22 02:08:48;;;;;;;;;;;6.80;99.90;;;;;;5034253;28;19920;-78
2021/10/22 02:11:14;;;;;;;;;;;6.80;99.90;;;;;;5026141;28;20200;-78
2021/10/22 02:13:39;;;;;;;;;;;6.80;99.90;;;;;;5031912;28;19959;-79
2021/10/22 02:16:05;;;;;;;;;;;6.80;99.90;;;;;;5032451;28;19918;-79
2021/10/22 02:18:30;;;;;;;;;;;6.80;99.90;;;;;;5037864;28;20312;-78
2021/10/22 02:20:56;;;;;;;;;;;6.90;99.90;;;;;;5045219;28;19917;-77
2021/10/22 02:23:22;;;;;;;;;;;6.90;99.90;;;;;;5033730;28;19959;-78
2021/10/22 02:25:47;;;;;;;;;;;6.90;99.90;;;;;;5018267;28;19916;-79
2021/10/22 02:28:13;;;;;;;;;;;6.90;99.90;;;;;;5041655;28;20228;-79
2021/10/22 02:30:39;;;;;;;;;;;6.90;99.90;;;;;;5050420;28;19909;-79
2021/10/22 02:33:05;;;;;;;;;;;6.90;99.90;;;;;;5031612;28;19921;-77
2021/10/22 02:35:31;;;;;;;;;;;6.90;99.90;;;;;;5034064;28;20421;-79
2021/10/22 02:37:56;;;;;;;;;;;6.90;99.90;;;;;;5033911;28;19928;-79
2021/10/22 02:40:22;;;;;;;;;;;6.90;99.90;;;;;;5034552;28;20000;-79
2021/10/22 02:42:48;;;;;;;;;;;6.90;99.90;;;;;;5034572;28;20327;-79
2021/10/22 02:45:13;;;;;;;;;;;6.80;99.90;;;;;;5030657;28;20220;-79
2021/10/22 02:47:39;;;;;;;;;;;6.80;99.90;;;;;;5032385;28;19928;-79
2021/10/22 02:50:05;;;;;;;;;;;6.80;99.90;;;;;;5034718;28;19913;-79
2021/10/22 02:52:31;;;;;;;;;;;6.80;99.90;;;;;;5035370;28;20007;-79
2021/10/22 02:54:57;;;;;;;;;;;6.80;99.90;;;;;;5035856;28;20048;-77
2021/10/22 02:57:22;;;;;;;;;;;6.90;99.90;;;;;;5031747;28;19944;-78
2021/10/22 02:59:48;;;;;;;;;;;7.00;99.90;;;;;;5031859;28;20002;-78
2021/10/22 03:02:13;;;;;;;;;;;7.10;99.90;;;;;;5034326;28;19909;-78
2021/10/22 03:04:39;;;;;;;;;;;7.30;99.90;;;;;;5044331;28;19913;-78
2021/10/22 03:07:05;;;;;;;;;;;7.40;99.90;;;;;;5031314;28;19925;-78
2021/10/22 03:09:30;;;;;;;;;;;7.50;99.90;;;;;;5034874;28;20518;-77
2021/10/22 03:11:56;;;;;;;;;;;7.60;99.90;;;;;;5027090;28;19913;-77
2021/10/22 03:14:22;;;;;;;;;;;7.70;99.90;;;;;;5029464;28;19920;-79
2021/10/22 03:16:47;;;;;;;;;;;7.80;99.90;;;;;;5034225;28;20418;-80
2021/10/22 03:19:13;;;;;;;;;;;7.90;99.90;;;;;;5034876;28;19979;-77
2021/10/22 03:21:39;;;;;;;;;;;8.00;99.90;;;;;;5019412;28;20216;-80
2021/10/22 03:24:05;;;;;;;;;;;8.00;99.90;;;;;;5034575;28;19939;-77
2021/10/22 03:26:30;;;;;;;;;;;8.10;99.90;;;;;;5033988;28;19909;-79
2021/10/22 03:28:56;;;;;;;;;;;8.20;99.90;;;;;;5034628;28;19971;-78
2021/10/22 03:31:21;;;;;;;;;;;8.20;99.90;;;;;;5035015;28;20009;-80
2021/10/22 03:33:47;;;;;;;;;;;8.30;99.90;;;;;;5037776;28;20327;-81
2021/10/22 03:36:12;;;;;;;;;;;8.40;99.90;;;;;;5025429;28;20316;-82
2021/10/22 03:38:38;;;;;;;;;;;8.40;99.90;;;;;;5034278;28;20254;-84
2021/10/22 03:41:04;;;;;;;;;;;8.50;99.90;;;;;;5034297;28;19909;-79
2021/10/22 03:43:29;;;;;;;;;;;8.60;99.90;;;;;;5033989;28;19914;-80
2021/10/22 03:45:55;;;;;;;;;;;8.60;99.90;;;;;;5033082;28;19932;-79
2021/10/22 03:48:23;;;;;;;;;;;8.70;99.90;;;;;;5029064;28;20247;-84
2021/10/22 03:50:49;;;;;;;;;;;8.70;99.90;;;;;;5038587;28;19921;-79
2021/10/22 03:53:14;;;;;;;;;;;8.90;99.90;;;;;;5028018;28;19917;-81
2021/10/22 03:55:40;;;;;;;;;;;9.00;99.90;;;;;;5033614;28;20204;-80
2021/10/22 03:58:05;;;;;;;;;;;9.00;99.90;;;;;;5035381;28;19910;-81
2021/10/22 04:00:31;;;;;;;;;;;9.10;99.90;;;;;;5035781;28;19913;-82
2021/10/22 04:02:56;;;;;;;;;;;9.20;99.90;;;;;;5031766;28;19909;-77
2021/10/22 04:05:22;;;;;;;;;;;9.30;99.90;;;;;;5032643;28;19916;-79
2021/10/22 04:07:48;;;;;;;;;;;9.30;99.90;;;;;;5033094;28;19921;-82
2021/10/22 04:10:13;;;;;;;;;;;9.30;99.90;;;;;;5031734;28;19917;-76
2021/10/22 04:12:39;;;;;;;;;;;9.30;99.90;;;;;;5040059;28;19914;-77
2021/10/22 04:15:05;;;;;;;;;;;9.30;99.90;;;;;;5034585;28;19913;-79
2021/10/22 04:17:30;;;;;;;;;;;9.30;99.90;;;;;;5034990;28;19921;-77
2021/10/22 04:19:56;;;;;;;;;;;9.30;99.90;;;;;;5033999;28;20221;-78
2021/10/22 04:22:22;;;;;;;;;;;9.30;99.90;;;;;;5037798;28;19948;-75
2021/10/22 04:24:47;;;;;;;;;;;9.30;99.90;;;;;;5036220;28;19909;-76
2021/10/22 04:27:13;;;;;;;;;;;9.30;99.90;;;;;;5034610;28;19953;-75
2021/10/22 04:29:38;;;;;;;;;;;9.30;99.90;;;;;;5029813;28;20461;-75
2021/10/22 04:32:04;;;;;;;;;;;9.20;99.90;;;;;;5038065;28;20311;-76
2021/10/22 04:34:30;;;;;;;;;;;9.10;99.90;;;;;;5026366;28;20317;-78
2021/10/22 04:42:24;;;;;;;;;;;9.10;99.90;;;;;;5024837;28;20414;-79
2021/10/22 04:44:50;;;;;;;;;;;9.20;99.90;;;;;;5038376;28;19945;-79
2021/10/22 04:47:15;;;;;;;;;;;9.20;99.90;;;;;;5033503;28;19932;-78
2021/10/22 04:49:43;;;;;;;;;;;9.20;99.90;;;;;;5032218;28;20308;-82
2021/10/22 04:52:08;;;;;;;;;;;9.20;99.90;;;;;;5036789;28;19923;-82
2021/10/22 04:54:34;;;;;;;;;;;9.20;99.90;;;;;;5020634;28;19913;-85
2021/10/22 04:56:59;;;;;;;;;;;9.20;99.90;;;;;;5048537;28;20000;-76
2021/10/22 04:59:25;;;;;;;;;;;9.30;99.90;;;;;;5037798;28;19919;-82
2021/10/22 05:01:50;;;;;;;;;;;9.40;99.90;;;;;;5036872;28;19960;-83
2021/10/22 05:04:16;;;;;;;;;;;9.40;99.90;;;;;;5037734;28;19917;-85
2021/10/22 05:06:42;;;;;;;;;;;9.40;99.90;;;;;;5037594;28;19913;-86
2021/10/22 05:09:07;;;;;;;;;;;9.30;99.90;;;;;;5037499;28;19909;-80
2021/10/22 05:11:33;;;;;;;;;;;9.30;99.90;;;;;;5037494;28;19955;-82
2021/10/22 05:13:59;;;;;;;;;;;9.30;99.90;;;;;;5045386;28;20004;-81
2021/10/22 05:16:24;;;;;;;;;;;9.30;99.90;;;;;;5040461;28;19956;-81
2021/10/22 05:18:50;;;;;;;;;;;9.30;99.90;;;;;;5037549;28;19917;-81
2021/10/22 05:21:16;;;;;;;;;;;9.30;99.90;;;;;;5036705;28;19913;-81
2021/10/22 05:23:41;;;;;;;;;;;9.40;99.90;;;;;;5037081;28;20360;-87
2021/10/22 05:26:07;;;;;;;;;;;9.30;99.90;;;;;;5037499;28;20296;-79
2021/10/22 05:28:32;;;;;;;;;;;9.30;99.90;;;;;;5036231;28;19921;-80
2021/10/22 05:30:58;;;;;;;;;;;9.30;99.90;;;;;;5035956;28;19909;-85
2021/10/22 05:33:24;;;;;;;;;;;9.30;99.90;;;;;;5036599;28;20286;-90
2021/10/22 05:35:49;;;;;;;;;;;9.30;99.90;;;;;;5037039;28;19919;-81
2021/10/22 05:38:15;;;;;;;;;;;9.30;99.90;;;;;;5052073;28;20340;-79
2021/10/22 05:40:40;;;;;;;;;;;9.30;99.90;;;;;;5031558;28;19914;-81
2021/10/22 05:43:06;;;;;;;;;;;9.30;99.90;;;;;;5038969;28;19921;-87
2021/10/22 05:45:32;;;;;;;;;;;9.30;99.90;;;;;;5034175;28;19917;-85
2021/10/22 05:47:58;;;;;;;;;;;9.30;99.90;;;;;;5023540;28;19920;-85
2021/10/22 05:50:23;;;;;;;;;;;9.30;99.90;;;;;;5035903;28;19909;-82
2021/10/22 05:52:49;;;;;;;;;;;9.30;99.90;;;;;;5033374;28;20305;-83
2021/10/22 05:55:16;;;;;;;;;;;9.30;99.90;;;;;;5032183;28;19932;-81
2021/10/22 05:57:41;;;;;;;;;;;9.30;99.90;;;;;;5037346;28;19962;-80
2021/10/22 06:00:07;;;;;;;;;;;9.30;99.90;;;;;;5035852;28;19909;-79
2021/10/22 06:02:37;;;;;;;;;;;9.30;99.90;;;;;;5032159;28;19942;-81
2021/10/22 06:05:03;;;;;;;;;;;9.30;99.90;;;;;;5035895;28;19921;-82
2021/10/22 06:07:28;;;;;;;;;;;9.20;99.90;;;;;;5048021;28;19917;-82
2021/10/22 06:09:54;;;;;;;;;;;9.20;99.90;;;;;;5036822;28;20012;-84
2021/10/22 06:12:21;;;;;;;;;;;9.20;99.90;;;;;;5034082;28;19968;-82
2021/10/22 06:14:46;;;;;;;;;;;9.10;99.90;;;;;;5034794;28;19932;-84
2021/10/22 06:17:12;;;;;;;;;;;9.10;99.90;;;;;;5034052;28;19917;-82
2021/10/22 06:19:40;;;;;;;;;;;9.10;99.90;;;;;;5033364;28;19920;-81
2021/10/22 06:24:31;;;;;;;;;;;9.10;99.90;;;;;;5035145;28;20502;-86
2021/10/22 06:26:57;;;;;;;;;;;9.10;99.90;;;;;;5030105;28;19924;-82
2021/10/22 06:29:22;;;;;;;;;;;9.20;99.90;;;;;;5032401;28;19921;-81
2021/10/22 06:31:48;;;;;;;;;;;9.20;99.90;;;;;;5033395;28;20232;-88
2021/10/22 06:34:14;;;;;;;;;;;9.20;99.90;;;;;;5032750;28;19917;-83
2021/10/22 06:36:40;;;;;;;;;;;9.30;99.90;;;;;;5035305;28;19913;-85
2021/10/22 06:39:06;;;;;;;;;;;9.30;99.90;;;;;;5033214;28;19920;-79
2021/10/22 06:41:35;;;;;;;;;;;9.30;99.90;;;;;;5032939;28;19917;-81
2021/10/22 06:44:00;;;;;;;;;;;9.40;99.90;;;;;;5033181;28;19960;-81
2021/10/22 06:46:26;;;;;;;;;;;9.30;99.90;;;;;;5032595;28;19960;-80
2021/10/22 06:48:52;;;;;;;;;;;9.40;99.90;;;;;;5031755;28;19967;-78
2021/10/22 06:51:17;;;;;;;;;;;9.40;99.90;;;;;;5033467;28;19917;-80
2021/10/22 06:53:44;;;;;;;;;;;9.40;99.90;;;;;;5034193;28;20339;-81
2021/10/22 06:56:09;;;;;;;;;;;9.40;99.90;;;;;;5030938;28;20293;-83
2021/10/22 06:58:35;;;;;;;;;;;9.50;99.90;;;;;;5033677;28;19920;-83
2021/10/22 07:01:00;;;;;;;;;;;9.50;99.90;;;;;;5034044;28;20008;-84
2021/10/22 07:03:27;;;;;;;;;;;9.50;99.90;;;;;;5048705;28;19917;-84
2021/10/22 07:08:24;;;;;;;;;;;9.70;99.90;;;;;;5032306;28;19916;-85
2021/10/22 07:10:51;;;;;;;;;;;9.70;99.90;;;;;;5032499;28;19916;-85
2021/10/22 07:13:16;;;;;;;;;;;9.70;99.90;;;;;;5034239;28;19917;-82
2021/10/22 07:15:42;;;;;;;;;;;9.80;99.90;;;;;;5034448;28;20197;-86
2021/10/22 07:18:08;;;;;;;;;;;10.20;99.90;;;;;;5030704;28;20322;-79
2021/10/22 07:20:34;;;;;;;;;;;10.70;99.90;;;;;;5034797;28;19910;-82
2021/10/22 07:23:05;;;;;;;;;;;10.80;99.90;;;;;;5033500;28;19967;-86
2021/10/22 07:25:32;;;;;;;;;;;10.70;99.90;;;;;;5030655;28;19913;-82
2021/10/22 07:27:58;;;;;;;;;;;10.60;99.90;;;;;;5031574;28;19928;-81
2021/10/22 07:30:25;;;;;;;;;;;10.80;99.90;;;;;;5031614;28;19913;-85
2021/10/22 07:32:50;;;;;;;;;;;11.20;99.90;;;;;;5033083;28;19920;-84
2021/10/22 07:35:16;;;;;;;;;;;12.00;99.90;;;;;;5038038;28;19921;-79
2021/10/22 07:37:43;;;;;;;;;;;12.70;99.90;;;;;;5031420;28;19909;-82
2021/10/22 07:40:09;;;;;;;;;;;13.20;99.90;;;;;;5031823;28;20009;-81
2021/10/22 07:42:35;;;;;;;;;;;13.10;99.90;;;;;;5042075;28;19971;-88
2021/10/22 07:45:03;;;;;;;;;;;12.50;99.90;;;;;;5033974;28;20390;-78
2021/10/22 07:47:29;;;;;;;;;;;12.10;99.90;;;;;;5032950;28;19921;-81
2021/10/22 07:49:55;;;;;;;;;;;11.70;99.90;;;;;;5043511;28;19917;-80
2021/10/22 07:52:21;;;;;;;;;;;11.20;99.90;;;;;;5029705;28;20011;-79
2021/10/22 07:54:47;;;;;;;;;;;11.10;99.90;;;;;;5028706;28;20316;-79
2021/10/22 07:57:13;;;;;;;;;;;11.00;99.90;;;;;;5038534;28;19915;-80
2021/10/22 07:59:39;;;;;;;;;;;11.00;99.90;;;;;;5037123;28;20440;-79
2021/10/22 08:02:06;;;;;;;;;;;10.90;99.90;;;;;;5031431;28;20007;-81
2021/10/22 08:04:31;;;;;;;;;;;10.90;99.90;;;;;;5031380;28;19913;-79
2021/10/22 08:06:57;;;;;;;;;;;10.90;99.90;;;;;;5030848;28;20313;-78
2021/10/22 08:09:22;;;;;;;;;;;10.90;99.90;;;;;;5028633;28;19913;-81
2021/10/22 08:11:48;;;;;;;;;;;10.90;99.90;;;;;;5026873;28;19962;-78
2021/10/22 08:14:14;;;;;;;;;;;10.90;99.90;;;;;;5028243;28;19913;-80
2021/10/22 08:16:39;;;;;;;;;;;10.80;99.90;;;;;;5024849;28;19917;-80
2021/10/22 08:19:05;;;;;;;;;;;10.80;99.90;;;;;;5029948;28;20228;-81
2021/10/22 08:24:06;;;;;;;;;;;10.80;99.90;;;;;;5036066;28;20244;-79
2021/10/22 08:26:32;;;;;;;;;;;10.90;99.90;;;;;;5036721;28;19914;-83
2021/10/22 08:28:57;;;;;;;;;;;10.90;99.90;;;;;;5038215;28;19928;-76
2021/10/22 08:31:23;;;;;;;;;;;11.10;99.90;;;;;;5036401;28;20003;-80
2021/10/22 08:33:49;;;;;;;;;;;11.10;99.90;;;;;;5023760;28;19913;-82
2021/10/22 08:36:14;;;;;;;;;;;11.10;99.90;;;;;;5036976;28;19963;-78
2021/10/22 08:38:40;;;;;;;;;;;11.10;99.90;;;;;;5037871;28;20296;-82
2021/10/22 08:41:11;;;;;;;;;;;11.20;99.90;;;;;;5037910;28;19910;-83
2021/10/22 08:43:37;;;;;;;;;;;11.20;99.90;;;;;;5046580;28;19917;-77
2021/10/22 08:46:06;;;;;;;;;;;11.30;99.90;;;;;;5028772;28;19920;-83
2021/10/22 08:48:32;;;;;;;;;;;11.20;99.90;;;;;;5036678;28;19928;-81
2021/10/22 08:50:58;;;;;;;;;;;11.20;99.90;;;;;;5035844;28;19916;-82
2021/10/22 08:53:24;;;;;;;;;;;11.10;99.90;;;;;;5030144;28;20209;-82
2021/10/22 08:55:50;;;;;;;;;;;11.00;99.90;;;;;;5025292;28;19920;-81
2021/10/22 08:58:19;;;;;;;;;;;11.00;99.90;;;;;;5036565;28;20315;-81
2021/10/22 09:00:45;;;;;;;;;;;11.00;99.90;;;;;;5045554;28;20638;-77
2021/10/22 09:03:12;;;;;;;;;;;11.10;99.90;;;;;;5032435;28;19947;-78
2021/10/22 09:05:55;;;;;;;;;;;11.20;99.90;;;;;;5021237;28;19914;-80
2021/10/22 09:08:47;;;;;;;;;;;11.10;99.90;;;;;;5050116;28;19921;-74
2021/10/22 09:11:23;;;;;;;;;;;11.00;99.90;;;;;;5034587;28;19913;-77
2021/10/22 09:14:14;;;;;;;;;;;11.10;99.90;;;;;;5027093;28;20063;-77
2021/10/22 09:16:44;;;;;;;;;;;11.20;99.90;;;;;;5035328;28;19924;-80
2021/10/22 09:19:09;;;;;;;;;;;11.20;99.90;;;;;;5042723;28;20279;-78
2021/10/22 09:21:35;;;;;;;;;;;11.30;99.90;;;;;;5033255;28;19970;-79
2021/10/22 09:24:34;;;;;;;;;;;11.20;99.90;;;;;;5035562;28;19913;-77
2021/10/22 09:27:02;;;;;;;;;;;11.10;99.90;;;;;;5032640;28;19921;-81
2021/10/22 09:29:28;;;;;;;;;;;10.90;99.90;;;;;;5038471;28;19925;-83
2021/10/22 09:31:57;;;;;;;;;;;10.90;99.90;;;;;;5034335;28;19921;-76
2021/10/22 09:34:29;;;;;;;;;;;10.90;99.90;;;;;;5019636;28;19999;-80
2021/10/22 09:36:55;;;;;;;;;;;10.90;99.90;;;;;;5033363;28;20119;-81
2021/10/22 09:39:21;;;;;;;;;;;10.90;99.90;;;;;;5017331;28;20294;-82
2021/10/22 09:41:51;;;;;;;;;;;10.90;99.90;;;;;;5014575;28;19921;-80
2021/10/22 09:44:17;;;;;;;;;;;11.00;99.90;;;;;;5033842;28;19920;-83
2021/10/22 09:46:43;;;;;;;;;;;11.10;99.90;;;;;;5014444;28;20224;-78
2021/10/22 09:49:09;;;;;;;;;;;11.10;99.90;;;;;;5015174;28;19920;-89
2021/10/22 09:51:37;;;;;;;;;;;11.10;99.90;;;;;;5027644;28;19963;-82
2021/10/22 09:54:09;;;;;;;;;;;11.20;99.90;;;;;;5016929;28;19966;-82
2021/10/22 09:56:36;;;;;;;;;;;11.30;99.90;;;;;;5015820;28;19916;-79
2021/10/22 09:59:03;;;;;;;;;;;11.50;99.90;;;;;;5031466;28;19921;-91
2021/10/22 10:01:30;;;;;;;;;;;11.80;99.90;;;;;;5014942;28;19921;-82
2021/10/22 10:03:58;;;;;;;;;;;11.90;99.90;;;;;;5034290;28;19922;-84
2021/10/22 10:06:24;;;;;;;;;;;11.80;99.90;;;;;;5032006;28;19968;-76
2021/10/22 10:08:50;;;;;;;;;;;11.90;99.90;;;;;;5030709;28;20012;-78
2021/10/22 10:11:16;;;;;;;;;;;12.00;99.90;;;;;;5033700;28;19921;-80
2021/10/22 10:13:42;;;;;;;;;;;12.10;99.90;;;;;;5031919;28;19913;-77
2021/10/22 10:16:09;;;;;;;;;;;12.10;99.90;;;;;;5031746;28;20215;-80
2021/10/22 10:18:55;;;;;;;;;;;12.10;99.90;;;;;;5026490;28;20319;-79
2021/10/22 10:21:21;;;;;;;;;;;12.30;99.90;;;;;;5034451;28;20322;-79
2021/10/22 10:23:51;;;;;;;;;;;12.30;99.90;;;;;;5032673;28;20039;-76
2021/10/22 10:26:20;;;;;;;;;;;12.30;99.90;;;;;;5032325;28;20323;-78
2021/10/22 10:28:46;;;;;;;;;;;12.30;99.90;;;;;;5033261;28;20385;-76
2021/10/22 10:31:32;;;;;;;;;;;12.30;99.90;;;;;;5033770;28;19913;-79
2021/10/22 10:33:58;;;;;;;;;;;12.20;99.90;;;;;;5032913;28;19913;-82
2021/10/22 10:36:43;;;;;;;;;;;12.20;99.90;;;;;;5032767;28;20445;-77
2021/10/22 10:39:09;;;;;;;;;;;12.20;99.90;;;;;;5033286;28;19921;-78
2021/10/22 10:41:35;;;;;;;;;;;12.10;99.90;;;;;;5033381;28;19936;-81
2021/10/22 10:44:30;;;;;;;;;;;12.20;99.90;;;;;;5033183;28;19913;-80
2021/10/22 10:46:56;;;;;;;;;;;12.20;99.90;;;;;;5034718;28;20339;-80
2021/10/22 10:49:40;;;;;;;;;;;12.30;99.90;;;;;;5044003;28;19952;-85
2021/10/22 10:52:06;;;;;;;;;;;12.30;99.90;;;;;;5034712;28;19913;-81
2021/10/22 10:54:35;;;;;;;;;;;12.30;99.90;;;;;;5034755;28;20375;-79
2021/10/22 10:57:20;;;;;;;;;;;12.50;99.90;;;;;;5032634;28;19936;-81
2021/10/22 10:59:46;;;;;;;;;;;12.60;99.90;;;;;;5031798;28;19920;-87
2021/10/22 11:02:11;;;;;;;;;;;12.70;99.90;;;;;;5031405;28;19913;-76
2021/10/22 11:04:47;;;;;;;;;;;12.70;99.90;;;;;;5028886;28;19921;-81
2021/10/22 11:07:31;;;;;;;;;;;12.60;99.90;;;;;;5028748;28;19917;-83
2021/10/22 11:09:57;;;;;;;;;;;12.50;99.90;;;;;;5034904;28;20279;-82
2021/10/22 11:12:23;;;;;;;;;;;12.30;99.90;;;;;;5028303;28;20300;-77
2021/10/22 11:14:50;;;;;;;;;;;12.20;99.90;;;;;;5032583;28;19913;-85
2021/10/22 11:17:34;;;;;;;;;;;12.10;99.90;;;;;;5026692;28;19921;-78
2021/10/22 11:20:02;;;;;;;;;;;12.00;99.90;;;;;;5039090;28;19913;-77
2021/10/22 11:22:28;;;;;;;;;;;11.90;99.90;;;;;;5032255;28;21005;-80
2021/10/22 11:24:54;;;;;;;;;;;11.90;99.90;;;;;;5026678;28;19939;-80
2021/10/22 11:27:25;;;;;;;;;;;12.00;99.90;;;;;;5029249;28;19929;-81
2021/10/22 11:29:52;;;;;;;;;;;12.00;99.90;;;;;;5032719;28;19913;-79
2021/10/22 11:32:19;;;;;;;;;;;12.00;99.90;;;;;;5030692;28;19960;-78
2021/10/22 11:35:05;;;;;;;;;;;11.90;99.90;;;;;;5033387;28;19924;-80
2021/10/22 11:37:37;;;;;;;;;;;11.90;99.90;;;;;;5031738;28;20275;-79
2021/10/22 11:40:06;;;;;;;;;;;11.80;99.90;;;;;;5031294;28;19913;-78
2021/10/22 11:42:32;;;;;;;;;;;11.70;99.90;;;;;;5033176;28;19928;-79
2021/10/22 11:45:08;;;;;;;;;;;11.60;99.90;;;;;;5028483;28;19948;-79
2021/10/22 11:47:40;;;;;;;;;;;11.50;99.90;;;;;;5034074;28;20028;-85
2021/10/22 11:50:22;;;;;;;;;;;11.40;99.90;;;;;;5032514;28;19913;-81
2021/10/22 11:52:48;;;;;;;;;;;11.30;99.90;;;;;;5030967;28;19967;-78
2021/10/22 11:55:21;;;;;;;;;;;11.30;99.90;;;;;;5027816;28;19959;-78
2021/10/22 11:57:49;;;;;;;;;;;11.40;99.90;;;;;;5031666;28;19944;-79
2021/10/22 12:00:16;;;;;;;;;;;11.40;99.90;;;;;;5030739;28;19921;-81
2021/10/22 12:02:42;;;;;;;;;;;11.40;99.90;;;;;;5028772;28;20271;-81
2021/10/22 12:05:09;;;;;;;;;;;11.40;99.90;;;;;;5030314;28;19917;-79
2021/10/22 12:07:35;;;;;;;;;;;11.30;99.90;;;;;;5044580;28;19928;-79
2021/10/22 12:10:21;;;;;;;;;;;11.20;99.90;;;;;;5029955;28;19921;-79
2021/10/22 12:12:51;;;;;;;;;;;11.20;99.90;;;;;;5033102;28;19917;-79
2021/10/22 12:15:19;;;;;;;;;;;11.10;99.90;;;;;;5048850;28;20282;-78
2021/10/22 12:17:52;;;;;;;;;;;11.00;99.90;;;;;;5030138;28;19917;-77
2021/10/22 12:20:18;;;;;;;;;;;11.00;99.90;;;;;;5034064;28;20216;-74
2021/10/22 12:22:53;;;;;;;;;;;11.00;99.90;;;;;;5032227;28;19913;-77
2021/10/22 12:25:24;;;;;;;;;;;10.90;99.90;;;;;;5033309;28;20096;-77
2021/10/22 12:27:51;;;;;;;;;;;10.90;99.90;;;;;;5030752;28;20335;-77
2021/10/22 12:30:19;;;;;;;;;;;10.80;99.90;;;;;;5027278;28;19917;-75
2021/10/22 12:32:48;;;;;;;;;;;10.70;99.90;;;;;;5030816;28;20324;-76
2021/10/22 12:35:19;;;;;;;;;;;10.60;99.90;;;;;;5028728;28;19913;-80
2021/10/22 12:37:46;;;;;;;;;;;10.30;99.90;;;;;;5030508;28;19917;-76
2021/10/22 12:40:19;;;;;;;;;;;10.10;99.90;;;;;;5032407;28;19925;-75
2021/10/22 12:42:45;;;;;;;;;;;10.00;99.90;;;;;;5035379;28;20012;-75
2021/10/22 12:45:18;;;;;;;;;;;10.00;99.90;;;;;;5036801;28;19981;-75
2021/10/22 12:47:45;;;;;;;;;;;10.00;99.90;;;;;;5035207;28;20020;-75
2021/10/22 12:50:12;;;;;;;;;;;10.00;99.90;;;;;;5031623;28;20236;-75
2021/10/22 12:52:39;;;;;;;;;;;10.00;99.90;;;;;;5038163;28;20223;-77
2021/10/22 12:55:05;;;;;;;;;;;10.00;99.90;;;;;;5034982;28;20343;-77
2021/10/22 12:57:30;;;;;;;;;;;10.00;99.90;;;;;;5035657;28;20316;-75
2021/10/22 13:00:16;;;;;;;;;;;10.00;99.90;;;;;;5036548;28;19943;-76
2021/10/22 13:02:41;;;;;;;;;;;10.20;99.90;;;;;;5048811;28;19913;-76
2021/10/22 13:05:10;;;;;;;;;;;10.10;99.90;;;;;;5035073;28;19917;-76
2021/10/22 13:07:50;;;;;;;;;;;10.20;99.90;;;;;;5030925;28;19917;-77
2021/10/22 13:10:30;;;;;;;;;;;10.20;99.90;;;;;;5034680;28;20331;-77
2021/10/22 13:13:04;;;;;;;;;;;10.20;99.90;;;;;;5033224;28;19963;-76
2021/10/22 13:20:16;;;;;;;;;;;10.30;99.90;;;;;;5032631;28;19917;-85
2021/10/22 13:21:00;;;;;;;;;;;10.70;99.90;;;;;;5035643;28;19967;-80
2021/10/22 13:23:25;;;;;;;;;;;10.90;99.90;;;;;;5031820;28;20364;-80
2021/10/22 13:25:52;;;;;;;;;;;10.90;99.90;;;;;;5028503;28;20311;-81
2021/10/22 13:28:22;;;;;;;;;;;10.80;99.90;;;;;;5027001;28;19932;-79
2021/10/22 13:30:55;;;;;;;;;;;10.70;99.90;;;;;;5031417;28;20509;-77
2021/10/22 13:33:27;;;;;;;;;;;10.70;99.90;;;;;;5031394;28;19947;-79
2021/10/22 13:35:54;;;;;;;;;;;10.40;99.90;;;;;;5031161;28;19936;-78
2021/10/22 13:38:21;;;;;;;;;;;10.30;99.90;;;;;;5032870;28;19917;-80
2021/10/22 13:40:47;;;;;;;;;;;10.20;99.90;;;;;;5028795;28;19913;-80
2021/10/22 13:43:13;;;;;;;;;;;10.10;99.90;;;;;;5031500;28;20008;-78
2021/10/22 13:45:40;;;;;;;;;;;10.00;99.90;;;;;;5032163;28;19924;-81
2021/10/22 13:48:09;;;;;;;;;;;9.90;99.90;;;;;;5029551;28;19917;-78
2021/10/22 13:50:36;;;;;;;;;;;9.90;99.90;;;;;;5032184;28;20015;-80
2021/10/22 13:53:01;;;;;;;;;;;9.80;99.90;;;;;;5031715;28;19949;-82
2021/10/22 13:55:27;;;;;;;;;;;9.80;99.90;;;;;;5032503;28;19999;-77
2021/10/22 13:57:53;;;;;;;;;;;9.90;99.90;;;;;;5033831;28;19920;-80
2021/10/22 14:00:19;;;;;;;;;;;10.00;99.90;;;;;;5033254;28;19917;-82
2021/10/22 14:02:45;;;;;;;;;;;10.00;99.90;;;;;;5034519;28;20367;-81
2021/10/22 14:05:11;;;;;;;;;;;10.00;99.90;;;;;;5031460;28;19913;-80
2021/10/22 14:07:36;;;;;;;;;;;10.00;99.90;;;;;;5032855;28;19928;-80
2021/10/22 14:10:03;;;;;;;;;;;10.10;99.90;;;;;;5034815;28;19913;-79
2021/10/22 14:12:41;;;;;;;;;;;10.00;99.90;;;;;;5033799;28;19929;-79
2021/10/22 14:15:39;;;;;;;;;;;10.10;99.90;;;;;;5029677;28;19993;-79
2021/10/22 14:23:48;;;;;;;;;;;9.90;99.90;;;;;;5035562;28;20213;-80
2021/10/22 14:29:08;;;;;;;;;;;10.00;99.90;;;;;;5031190;28;19956;-78
2021/10/22 14:31:37;;;;;;;;;;;10.00;99.90;;;;;;5034528;28;19924;-77
2021/10/22 14:34:11;;;;;;;;;;;10.10;99.90;;;;;;5033729;28;19913;-78
2021/10/22 14:36:36;;;;;;;;;;;10.00;99.90;;;;;;5035906;28;19913;-78
2021/10/22 14:39:03;;;;;;;;;;;10.00;99.90;;;;;;5032518;28;19967;-78
2021/10/22 14:41:30;;;;;;;;;;;10.00;99.90;;;;;;5033097;28;19917;-78
2021/10/22 14:44:02;;;;;;;;;;;10.00;99.90;;;;;;5031258;28;19917;-77
2021/10/22 14:46:29;;;;;;;;;;;10.00;99.90;;;;;;5034236;28;19913;-78
2021/10/22 14:49:16;;;;;;;;;;;10.00;99.90;;;;;;5033095;28;19920;-78
2021/10/22 14:54:29;;;;;;;;;;;10.10;99.90;;;;;;5034772;28;19921;-79
2021/10/22 14:56:55;;;;;;;;;;;10.20;99.90;;;;;;5034285;28;19917;-77
2021/10/22 14:59:21;;;;;;;;;;;10.20;99.90;;;;;;5032452;28;20210;-78
2021/10/22 15:01:48;;;;;;;;;;;10.20;99.90;;;;;;5030985;28;19913;-79
2021/10/22 15:04:13;;;;;;;;;;;10.10;99.90;;;;;;5043510;28;20219;-78
2021/10/22 15:06:39;;;;;;;;;;;10.10;99.90;;;;;;5030145;28;19924;-78
2021/10/22 15:09:05;;;;;;;;;;;10.10;99.90;;;;;;5047907;28;20298;-77
2021/10/22 15:11:31;;;;;;;;;;;10.00;99.90;;;;;;5042480;28;19917;-77
2021/10/22 15:13:57;;;;;;;;;;;10.00;99.90;;;;;;5031233;28;19924;-78
2021/10/22 15:16:23;;;;;;;;;;;10.00;99.90;;;;;;5032424;28;19913;-78
2021/10/22 15:18:49;;;;;;;;;;;10.00;99.90;;;;;;5032213;28;19917;-78
2021/10/22 15:21:16;;;;;;;;;;;10.10;99.90;;;;;;5028968;28;20209;-76